Merna, Nebraska
Current Conditions -  °F | °C
As of 1:53 PM on Monday 22 Dec 2014 (Local Time) from KBBW Reporting Station
Overcast Overcast  
Wind Chill: 36°   Ceiling: 4800
Heat Index: 44°   Visibility: 10mi
Dew Point: 30°   Wind: 18mph
Humidity: 58%   Direction: 320°NW
Pressure: 29.47"   Gusts: 28mph
Location:  41.48°N, 99.76°W
Report Text: KBBW 221953Z AUTO 32016G24KT 10SM OVC048 07/M01 A2947 RMK AO2 PK WND 32035/1856 SLP990 T00671011
Loading
Personal Weather Stations






























Interactive Weather Map New forecast layout! Learn more

10-Day Weather Forecast

Advertisements
Track Severe Weather on mobile